Time;durP1;ratioP1;P1;durP2;ratioP2;P2;SDS_P1;SDS_P2;PMS_P1;PMS_P2;Temp;Humidity;BMP_temperature;BMP_pressure;BME280_temperature;BME280_humidity;BME280_pressure;Samples;Min_cycle;Max_cycle;Signal;HPM_P1;HPM_P2
2022/03/15 00:00:25;;;;;;;5.20;3.00;;;20.50;55.50;;;;;;4963463;28;85989;-71
2022/03/15 00:02:51;;;;;;;5.95;3.40;;;20.50;55.50;;;;;;4960883;28;89732;-71
2022/03/15 00:05:17;;;;;;;7.50;3.58;;;20.50;55.40;;;;;;4960712;28;89338;-71
2022/03/15 00:07:44;;;;;;;6.20;3.10;;;20.50;55.40;;;;;;4962143;28;85710;-71
2022/03/15 00:10:15;;;;;;;7.90;3.50;;;20.40;55.20;;;;;;4962225;28;86094;-71
2022/03/15 00:12:42;;;;;;;6.40;3.40;;;20.40;55.30;;;;;;4962012;28;86812;-71
2022/03/15 00:15:09;;;;;;;6.45;3.45;;;20.40;55.40;;;;;;4944492;28;89763;-71
2022/03/15 00:17:36;;;;;;;6.05;3.05;;;20.40;55.20;;;;;;4959956;28;85855;-70
2022/03/15 00:20:03;;;;;;;6.72;3.20;;;20.40;55.20;;;;;;4944545;28;85649;-70
2022/03/15 00:22:33;;;;;;;5.40;3.10;;;20.40;55.00;;;;;;4958791;28;86308;-71
2022/03/15 00:24:59;;;;;;;6.45;2.97;;;20.40;55.00;;;;;;4960164;28;86097;-71
2022/03/15 00:27:24;;;;;;;4.28;2.80;;;20.40;54.90;;;;;;4961530;28;85745;-71
2022/03/15 00:29:50;;;;;;;5.68;3.08;;;20.40;54.90;;;;;;4962520;28;85951;-71
2022/03/15 00:32:17;;;;;;;4.82;3.10;;;20.40;54.90;;;;;;4960311;28;89786;-71
2022/03/15 00:34:43;;;;;;;5.93;2.90;;;20.40;54.90;;;;;;4962455;28;86393;-70
2022/03/15 00:37:09;;;;;;;5.70;3.10;;;20.40;54.90;;;;;;4962485;28;86151;-69
2022/03/15 00:39:34;;;;;;;6.88;3.30;;;20.40;54.80;;;;;;4962227;28;86006;-70
2022/03/15 00:42:00;;;;;;;5.95;2.75;;;20.40;54.80;;;;;;4961077;28;85590;-70
2022/03/15 00:44:26;;;;;;;4.90;3.15;;;20.30;54.80;;;;;;4960923;28;85619;-71
2022/03/15 00:46:52;;;;;;;6.57;3.55;;;20.30;54.90;;;;;;4959228;28;87293;-71
2022/03/15 00:49:20;;;;;;;4.65;2.85;;;20.30;54.70;;;;;;4961348;28;85727;-71
2022/03/15 00:51:45;;;;;;;4.82;2.95;;;20.30;54.70;;;;;;4961772;28;86852;-70
2022/03/15 00:54:11;;;;;;;5.75;3.20;;;20.30;54.70;;;;;;4962062;28;85983;-71
2022/03/15 00:56:36;;;;;;;5.80;2.88;;;20.30;54.60;;;;;;4961847;28;85619;-70
2022/03/15 00:59:02;;;;;;;5.30;2.80;;;20.30;54.70;;;;;;4946820;28;85724;-70
2022/03/15 01:01:29;;;;;;;5.32;3.20;;;20.30;54.70;;;;;;4955791;28;89303;-70
2022/03/15 01:03:55;;;;;;;5.15;2.85;;;20.30;54.70;;;;;;4960392;28;88143;-70
2022/03/15 01:06:21;;;;;;;4.88;3.00;;;20.30;55.40;;;;;;4960665;28;86433;-70
2022/03/15 01:08:47;;;;;;;6.32;3.28;;;20.20;55.30;;;;;;4961147;28;85787;-70
2022/03/15 01:11:13;;;;;;;5.40;2.97;;;20.20;54.70;;;;;;4962135;28;86798;-70
2022/03/15 01:13:39;;;;;;;4.32;2.67;;;20.20;54.80;;;;;;4961617;28;86425;-70
2022/03/15 01:16:05;;;;;;;4.38;2.95;;;20.20;54.80;;;;;;4961961;28;85808;-71
2022/03/15 01:18:31;;;;;;;9.40;2.78;;;20.20;54.90;;;;;;4961362;28;85620;-71
2022/03/15 01:20:56;;;;;;;7.10;3.28;;;20.20;54.70;;;;;;4960499;28;89802;-71
2022/03/15 01:23:22;;;;;;;5.47;2.70;;;20.20;54.70;;;;;;4961526;28;86473;-71
2022/03/15 01:25:48;;;;;;;5.75;3.00;;;20.20;54.70;;;;;;4961924;28;86233;-71
2022/03/15 01:28:14;;;;;;;3.55;2.70;;;20.20;54.70;;;;;;4961785;28;85656;-71
2022/03/15 01:30:40;;;;;;;4.97;3.00;;;20.20;54.70;;;;;;4961025;28;86277;-71
2022/03/15 01:33:05;;;;;;;5.40;3.05;;;20.20;54.60;;;;;;4960489;28;85904;-71
2022/03/15 01:35:31;;;;;;;5.55;3.08;;;20.20;54.50;;;;;;4960927;28;85646;-71
2022/03/15 01:37:56;;;;;;;5.05;2.70;;;20.20;54.60;;;;;;4960749;28;86019;-71
2022/03/15 01:40:23;;;;;;;5.18;3.38;;;20.20;54.40;;;;;;4960084;28;86926;-71
2022/03/15 01:42:48;;;;;;;4.47;2.78;;;20.20;54.40;;;;;;4959634;28;86369;-71
2022/03/15 01:45:14;;;;;;;4.95;2.80;;;20.10;54.40;;;;;;4960909;28;85632;-71
2022/03/15 01:47:39;;;;;;;5.45;3.25;;;20.10;54.40;;;;;;4961651;28;85697;-71
2022/03/15 01:50:06;;;;;;;5.53;2.85;;;20.10;54.40;;;;;;4961211;28;86887;-71
2022/03/15 01:52:32;;;;;;;5.43;2.78;;;20.10;54.50;;;;;;4975236;28;88685;-71
2022/03/15 01:54:58;;;;;;;4.22;2.80;;;20.10;54.40;;;;;;4961297;28;85815;-70
2022/03/15 01:57:23;;;;;;;5.22;3.15;;;20.10;54.50;;;;;;4959810;28;85745;-70
2022/03/15 01:59:50;;;;;;;4.22;2.70;;;20.10;54.40;;;;;;4960678;28;87149;-70
2022/03/15 02:02:15;;;;;;;5.78;2.88;;;20.10;54.30;;;;;;4960522;28;86135;-70
2022/03/15 02:04:41;;;;;;;4.43;3.08;;;20.10;54.40;;;;;;4961481;28;85557;-71
2022/03/15 02:07:15;;;;;;;4.85;2.53;;;20.10;54.30;;;;;;4960901;28;85760;-70
2022/03/15 02:09:41;;;;;;;4.47;2.70;;;20.10;54.30;;;;;;4960978;28;86206;-70
2022/03/15 02:12:08;;;;;;;5.10;3.00;;;20.10;54.30;;;;;;4960838;28;86458;-70
2022/03/15 02:14:34;;;;;;;5.40;2.78;;;20.10;54.20;;;;;;4960757;28;85725;-70
2022/03/15 02:17:00;;;;;;;5.70;2.70;;;20.10;54.50;;;;;;4960650;28;85726;-70
2022/03/15 02:19:27;;;;;;;4.57;2.78;;;20.10;54.30;;;;;;4959473;28;89110;-71
2022/03/15 02:21:57;;;;;;;4.65;2.88;;;20.10;54.40;;;;;;4957325;28;89186;-71
2022/03/15 02:24:23;;;;;;;5.03;3.03;;;20.10;54.20;;;;;;4962978;28;85592;-71
2022/03/15 02:26:50;;;;;;;4.70;2.85;;;20.00;54.20;;;;;;4960548;28;85658;-71
2022/03/15 02:29:16;;;;;;;4.95;2.92;;;20.00;54.20;;;;;;4960012;28;86846;-70
2022/03/15 02:31:41;;;;;;;4.57;2.70;;;20.10;54.20;;;;;;4960188;28;86318;-70
2022/03/15 02:34:08;;;;;;;5.72;2.80;;;20.00;54.10;;;;;;4958403;28;86134;-71
2022/03/15 02:36:35;;;;;;;5.25;2.92;;;20.00;54.10;;;;;;4960135;28;85563;-71
2022/03/15 02:39:00;;;;;;;4.70;3.08;;;20.00;54.20;;;;;;4963143;28;86750;-71
2022/03/15 02:41:26;;;;;;;4.47;2.80;;;20.00;54.20;;;;;;4960612;28;86564;-71
2022/03/15 02:43:52;;;;;;;4.85;3.20;;;20.00;54.10;;;;;;4960457;28;85719;-70
2022/03/15 02:46:17;;;;;;;5.55;2.95;;;20.00;54.00;;;;;;4958448;28;85971;-70
2022/03/15 02:48:43;;;;;;;3.90;2.65;;;20.00;54.20;;;;;;4958293;28;89479;-71
2022/03/15 02:51:10;;;;;;;5.45;2.83;;;20.00;54.00;;;;;;4959401;28;86942;-71
2022/03/15 02:53:39;;;;;;;6.05;3.20;;;20.00;54.10;;;;;;4958001;28;85837;-70
2022/03/15 02:56:10;;;;;;;4.90;2.95;;;20.00;54.20;;;;;;4960495;28;86172;-70
2022/03/15 02:58:35;;;;;;;4.57;3.03;;;20.00;54.10;;;;;;4959910;28;86963;-70
2022/03/15 03:01:01;;;;;;;5.03;2.97;;;20.00;54.00;;;;;;4958056;28;89437;-70
2022/03/15 03:03:27;;;;;;;4.85;2.75;;;19.90;54.00;;;;;;4961303;28;86031;-70
2022/03/15 03:05:53;;;;;;;6.15;3.03;;;20.00;53.90;;;;;;4961719;28;86561;-70
2022/03/15 03:08:25;;;;;;;4.80;2.65;;;20.00;53.90;;;;;;4962609;28;86663;-70
2022/03/15 03:10:52;;;;;;;5.13;2.35;;;20.00;54.10;;;;;;4957216;28;86572;-70
2022/03/15 03:13:21;;;;;;;4.80;2.92;;;19.90;53.90;;;;;;4963238;28;85774;-70
2022/03/15 03:15:48;;;;;;;4.13;2.35;;;19.90;53.80;;;;;;4963522;28;86134;-70
2022/03/15 03:18:15;;;;;;;4.22;2.70;;;19.90;54.00;;;;;;4962807;28;87316;-71
2022/03/15 03:20:40;;;;;;;3.15;2.58;;;19.90;54.00;;;;;;4963659;28;86032;-71
2022/03/15 03:23:06;;;;;;;4.57;2.63;;;20.00;53.80;;;;;;4961869;28;85690;-71
2022/03/15 03:25:32;;;;;;;6.07;3.10;;;19.90;53.60;;;;;;4962509;28;85668;-70
2022/03/15 03:28:00;;;;;;;3.22;2.47;;;19.90;53.60;;;;;;4956397;28;86300;-70
2022/03/15 03:30:28;;;;;;;4.60;2.88;;;19.90;53.70;;;;;;4977565;28;89518;-71
2022/03/15 03:32:54;;;;;;;3.65;2.40;;;19.90;53.70;;;;;;4956847;28;85820;-70
2022/03/15 03:35:20;;;;;;;4.15;2.67;;;19.90;53.70;;;;;;4956682;28;85648;-70
2022/03/15 03:37:45;;;;;;;3.35;2.58;;;19.90;53.80;;;;;;4963138;28;86278;-70
2022/03/15 03:40:11;;;;;;;4.28;2.80;;;19.90;53.60;;;;;;4977632;28;89683;-70
2022/03/15 03:42:37;;;;;;;5.00;3.03;;;19.90;53.70;;;;;;4963189;28;85592;-71
2022/03/15 03:45:04;;;;;;;4.05;2.85;;;19.90;53.80;;;;;;4963098;28;85638;-71
2022/03/15 03:47:30;;;;;;;5.05;2.75;;;19.90;53.60;;;;;;4963549;28;86158;-70
2022/03/15 03:49:56;;;;;;;3.83;2.83;;;19.90;53.60;;;;;;4942782;28;88084;-70
2022/03/15 03:52:22;;;;;;;4.43;2.70;;;19.90;53.70;;;;;;4973818;28;85702;-70
2022/03/15 03:54:47;;;;;;;4.00;2.90;;;19.80;53.60;;;;;;4959851;28;85750;-70
2022/03/15 03:57:13;;;;;;;4.30;2.88;;;19.90;53.70;;;;;;4960981;28;89581;-70
2022/03/15 03:59:39;;;;;;;5.00;3.30;;;19.80;53.50;;;;;;4962024;28;86445;-70
2022/03/15 04:02:04;;;;;;;4.72;2.90;;;19.90;53.60;;;;;;4961153;28;85893;-70
2022/03/15 04:04:30;;;;;;;3.13;2.30;;;19.80;53.60;;;;;;4961758;28;85662;-70
2022/03/15 04:06:56;;;;;;;3.80;2.53;;;19.80;53.40;;;;;;4962495;28;86606;-69
2022/03/15 04:09:23;;;;;;;4.65;2.70;;;19.80;53.50;;;;;;4962286;28;86918;-69
2022/03/15 04:11:49;;;;;;;2.95;2.53;;;19.80;53.50;;;;;;4963117;28;86375;-70
2022/03/15 04:14:15;;;;;;;4.75;2.70;;;19.80;53.50;;;;;;4960924;28;85889;-70
2022/03/15 04:16:42;;;;;;;3.35;2.70;;;19.80;53.50;;;;;;4962029;28;87097;-70
2022/03/15 04:19:09;;;;;;;3.63;2.53;;;19.80;53.50;;;;;;4962297;28;86848;-70
2022/03/15 04:21:35;;;;;;;4.57;2.67;;;19.80;53.60;;;;;;4962491;28;85597;-70
2022/03/15 04:24:01;;;;;;;3.85;2.63;;;19.80;53.30;;;;;;4960792;28;85583;-69
2022/03/15 04:26:27;;;;;;;3.72;2.78;;;19.80;53.30;;;;;;4962168;28;85547;-70
2022/03/15 04:28:54;;;;;;;3.58;2.60;;;19.80;53.40;;;;;;4961988;28;87134;-70
2022/03/15 04:31:21;;;;;;;5.95;3.00;;;19.80;53.40;;;;;;4959544;28;86036;-70
2022/03/15 04:33:47;;;;;;;3.08;2.47;;;19.80;53.50;;;;;;4961539;28;85894;-70
2022/03/15 04:36:13;;;;;;;3.47;2.67;;;19.80;53.50;;;;;;4962400;28;86054;-70
2022/03/15 04:38:39;;;;;;;4.20;2.60;;;19.80;53.40;;;;;;4960626;28;88936;-70
2022/03/15 04:41:05;;;;;;;5.10;2.97;;;19.80;53.50;;;;;;4962518;28;85933;-70
2022/03/15 04:43:31;;;;;;;4.68;3.05;;;19.80;53.40;;;;;;4961819;28;85854;-70
2022/03/15 04:45:58;;;;;;;3.85;2.70;;;19.70;53.40;;;;;;4961418;28;86954;-70
2022/03/15 04:48:24;;;;;;;4.18;2.78;;;19.80;53.40;;;;;;4960799;28;86791;-70
2022/03/15 04:50:50;;;;;;;4.22;2.53;;;19.70;53.30;;;;;;4959953;28;85671;-70
2022/03/15 04:53:17;;;;;;;3.00;2.50;;;19.70;53.40;;;;;;4961962;28;85641;-70
2022/03/15 04:55:43;;;;;;;4.00;2.80;;;19.70;53.40;;;;;;4960538;28;89439;-70
2022/03/15 04:58:09;;;;;;;4.60;2.65;;;19.70;53.40;;;;;;4962275;28;86845;-70
2022/03/15 05:00:34;;;;;;;3.55;2.67;;;19.70;53.50;;;;;;4962070;28;86550;-72
2022/03/15 05:03:00;;;;;;;3.22;2.38;;;19.70;53.30;;;;;;4960430;28;85676;-72
2022/03/15 05:05:26;;;;;;;3.72;2.50;;;19.70;53.40;;;;;;4961808;28;86287;-69
2022/03/15 05:07:52;;;;;;;3.22;2.50;;;19.70;53.30;;;;;;4960821;28;86089;-69
2022/03/15 05:13:02;;;;;;;3.97;2.75;;;19.70;53.60;;;;;;4961650;28;86137;-69
2022/03/15 05:15:28;;;;;;;3.88;2.90;;;19.70;53.50;;;;;;4960908;28;86792;-69
2022/03/15 05:17:54;;;;;;;4.35;2.88;;;19.70;53.40;;;;;;4975253;28;89072;-69
2022/03/15 05:20:20;;;;;;;3.95;2.78;;;19.70;53.30;;;;;;4960920;28;85610;-69
2022/03/15 05:22:46;;;;;;;4.28;2.50;;;19.60;53.20;;;;;;4961284;28;85649;-69
2022/03/15 05:25:13;;;;;;;3.80;2.40;;;19.60;53.20;;;;;;4960955;28;86788;-70
2022/03/15 05:27:39;;;;;;;4.10;2.70;;;19.70;53.10;;;;;;4959907;28;86702;-70
2022/03/15 05:30:06;;;;;;;4.18;2.80;;;19.70;53.20;;;;;;4960240;28;86034;-69
2022/03/15 05:32:32;;;;;;;3.45;2.65;;;19.60;53.10;;;;;;4960079;28;85810;-70
2022/03/15 05:34:57;;;;;;;3.45;2.53;;;19.60;53.20;;;;;;4960298;28;88821;-69
2022/03/15 05:37:23;;;;;;;3.60;2.40;;;19.70;53.20;;;;;;4961052;28;86085;-70
2022/03/15 05:39:49;;;;;;;4.78;2.53;;;19.60;53.20;;;;;;4955107;28;86090;-70
2022/03/15 05:42:15;;;;;;;3.63;2.42;;;19.60;53.20;;;;;;4961571;28;85701;-70
2022/03/15 05:44:41;;;;;;;3.40;2.40;;;19.60;53.30;;;;;;4940541;28;90010;-70
2022/03/15 05:47:07;;;;;;;3.45;2.28;;;19.60;53.20;;;;;;4960905;28;86815;-70
2022/03/15 05:49:34;;;;;;;3.22;2.47;;;19.60;53.30;;;;;;4975961;28;85660;-70
2022/03/15 05:52:00;;;;;;;5.28;2.63;;;19.60;53.20;;;;;;4960507;28;86974;-72
2022/03/15 05:54:25;;;;;;;3.42;2.40;;;19.60;53.10;;;;;;4960767;28;87252;-70
2022/03/15 05:56:51;;;;;;;5.57;3.15;;;19.60;53.30;;;;;;4960802;28;86309;-70
2022/03/15 05:59:16;;;;;;;3.90;2.75;;;19.60;53.20;;;;;;4961159;28;85667;-70
2022/03/15 06:01:42;;;;;;;3.63;2.60;;;19.60;53.10;;;;;;4960213;28;85956;-70
2022/03/15 06:04:10;;;;;;;5.07;2.85;;;19.70;53.40;;;;;;4942649;28;89572;-70
2022/03/15 06:06:36;;;;;;;7.97;2.88;;;19.70;54.20;;;;;;4962695;28;86325;-70
2022/03/15 06:09:03;;;;;;;4.30;2.92;;;19.70;54.20;;;;;;4975574;28;85664;-70
2022/03/15 06:11:32;;;;;;;2.95;2.40;;;19.80;54.00;;;;;;4961680;28;85648;-73
2022/03/15 06:13:58;;;;;;;4.38;2.70;;;19.80;54.10;;;;;;4960976;28;86192;-70
2022/03/15 06:16:25;;;;;;;4.35;2.55;;;19.80;54.10;;;;;;4960831;28;86623;-70
2022/03/15 06:18:50;;;;;;;4.72;2.95;;;19.90;54.40;;;;;;4959975;28;86491;-70
2022/03/15 06:21:18;;;;;;;5.63;2.55;;;19.90;54.20;;;;;;4960705;28;86484;-69
2022/03/15 06:23:43;;;;;;;4.90;2.60;;;20.00;53.60;;;;;;4960993;28;86779;-69
2022/03/15 06:26:10;;;;;;;5.88;2.42;;;20.00;53.50;;;;;;4975182;28;88836;-69
2022/03/15 06:28:36;;;;;;;4.65;2.38;;;20.00;53.20;;;;;;4974172;28;86500;-69
2022/03/15 06:31:02;;;;;;;3.20;2.40;;;20.00;52.90;;;;;;4959460;28;86072;-70
2022/03/15 06:33:28;;;;;;;3.85;2.67;;;20.00;52.70;;;;;;4959581;28;86239;-70
2022/03/15 06:35:54;;;;;;;3.85;2.38;;;20.00;52.80;;;;;;4959972;28;86367;-69
2022/03/15 06:38:20;;;;;;;5.57;2.40;;;20.00;52.90;;;;;;4962137;28;86118;-70
2022/03/15 06:40:46;;;;;;;5.22;2.33;;;20.00;52.90;;;;;;4963198;28;85942;-70
2022/03/15 06:43:13;;;;;;;3.53;2.25;;;20.00;52.70;;;;;;4962939;28;86932;-71
2022/03/15 06:45:42;;;;;;;4.95;2.38;;;20.00;52.90;;;;;;4963106;28;85950;-71
2022/03/15 06:48:09;;;;;;;4.75;2.50;;;19.90;52.70;;;;;;4961339;28;85594;-71
2022/03/15 06:50:35;;;;;;;4.18;2.08;;;20.00;52.60;;;;;;4962129;28;85660;-70
2022/03/15 06:53:01;;;;;;;3.72;2.33;;;19.90;52.70;;;;;;4961976;28;89454;-69
2022/03/15 06:55:27;;;;;;;4.43;2.42;;;19.90;52.60;;;;;;4963532;28;85955;-70
2022/03/15 06:57:52;;;;;;;4.55;2.50;;;19.90;52.70;;;;;;4963957;28;85601;-71
2022/03/15 07:00:18;;;;;;;7.30;2.67;;;19.90;52.20;;;;;;4968244;28;85699;-69
2022/03/15 07:02:44;;;;;;;4.68;2.55;;;19.90;52.00;;;;;;4963259;28;86915;-70
2022/03/15 07:05:10;;;;;;;6.00;2.30;;;19.90;52.20;;;;;;4963427;28;85925;-70
2022/03/15 07:07:37;;;;;;;3.80;2.67;;;19.90;52.00;;;;;;4963604;28;85680;-71
2022/03/15 07:10:05;;;;;;;3.47;2.42;;;19.90;52.10;;;;;;4963282;28;85625;-70
2022/03/15 07:12:32;;;;;;;3.30;2.70;;;19.90;51.90;;;;;;4960631;28;90438;-70
2022/03/15 07:15:00;;;;;;;5.30;2.53;;;19.90;52.00;;;;;;4962562;28;85759;-70
2022/03/15 07:17:26;;;;;;;5.10;2.45;;;19.90;52.00;;;;;;4963146;28;85995;-70
2022/03/15 07:19:52;;;;;;;6.85;3.00;;;19.90;51.90;;;;;;4968142;28;86197;-69
2022/03/15 07:22:17;;;;;;;4.30;2.30;;;19.90;52.00;;;;;;4963923;28;86766;-72
2022/03/15 07:24:43;;;;;;;6.45;2.40;;;19.90;52.00;;;;;;4963331;28;85604;-71
2022/03/15 07:27:09;;;;;;;8.15;3.00;;;19.80;52.10;;;;;;4977442;28;85671;-70
2022/03/15 07:29:34;;;;;;;4.10;2.50;;;19.80;51.90;;;;;;4961192;28;85799;-71
2022/03/15 07:32:00;;;;;;;6.55;2.40;;;19.80;52.00;;;;;;4962748;28;86863;-70
2022/03/15 07:34:26;;;;;;;5.65;2.70;;;19.80;52.10;;;;;;4963187;28;86426;-71
2022/03/15 07:36:52;;;;;;;6.05;3.05;;;19.80;52.20;;;;;;4977084;28;86172;-73
2022/03/15 07:39:18;;;;;;;3.97;2.20;;;19.80;52.30;;;;;;4966384;28;85816;-73
2022/03/15 07:41:44;;;;;;;3.92;2.50;;;19.80;52.20;;;;;;4961876;28;87543;-73
2022/03/15 07:44:10;;;;;;;5.03;2.40;;;19.80;52.30;;;;;;4962533;28;86704;-71
2022/03/15 07:46:40;;;;;;;8.98;3.72;;;19.80;52.50;;;;;;4977338;28;85645;-71
2022/03/15 07:49:05;;;;;;;5.18;2.70;;;19.80;52.80;;;;;;4976064;28;86027;-70
2022/03/15 07:51:31;;;;;;;8.18;2.75;;;19.80;53.10;;;;;;4962797;28;87008;-70
2022/03/15 07:53:57;;;;;;;8.27;2.50;;;19.80;53.20;;;;;;4977091;28;89550;-71
2022/03/15 07:56:23;;;;;;;10.27;3.20;;;19.80;53.00;;;;;;4966766;28;85690;-70
2022/03/15 07:58:49;;;;;;;12.65;3.38;;;19.80;52.80;;;;;;4963644;28;85597;-70
2022/03/15 08:01:15;;;;;;;6.55;2.78;;;19.80;53.00;;;;;;4964428;28;86283;-71
2022/03/15 08:03:41;;;;;;;11.73;2.95;;;19.80;53.00;;;;;;4963181;28;86946;-70
2022/03/15 08:06:07;;;;;;;7.82;2.90;;;19.90;53.20;;;;;;4962517;28;85633;-70
2022/03/15 08:08:32;;;;;;;12.65;3.42;;;19.90;53.40;;;;;;4944026;28;85968;-69
2022/03/15 08:10:58;;;;;;;15.40;4.15;;;19.90;53.20;;;;;;4974231;28;88615;-70
2022/03/15 08:13:24;;;;;;;12.05;3.55;;;19.90;53.40;;;;;;4961343;28;86277;-70
2022/03/15 08:15:49;;;;;;;14.20;4.25;;;20.00;53.40;;;;;;4961432;28;85708;-70
2022/03/15 08:18:15;;;;;;;17.33;5.03;;;20.00;53.50;;;;;;4966355;28;85619;-70
2022/03/15 08:20:41;;;;;;;16.60;4.60;;;20.00;53.70;;;;;;4961119;28;86882;-70
2022/03/15 08:23:10;;;;;;;16.80;4.80;;;20.00;53.80;;;;;;4976463;28;89151;-70
2022/03/15 08:25:36;;;;;;;14.95;4.38;;;20.00;53.70;;;;;;4955746;28;86247;-71
2022/03/15 08:28:01;;;;;;;16.67;4.70;;;20.00;53.50;;;;;;4959100;28;85828;-71
2022/03/15 08:30:30;;;;;;;12.52;4.25;;;20.00;53.60;;;;;;4961421;28;86937;-70
2022/03/15 08:32:56;;;;;;;15.10;4.87;;;20.00;53.80;;;;;;4959564;28;87141;-70
2022/03/15 08:35:22;;;;;;;18.15;4.90;;;20.00;54.10;;;;;;4960010;28;85793;-71
2022/03/15 08:37:51;;;;;;;22.13;5.22;;;20.00;54.20;;;;;;4959893;28;86293;-71
2022/03/15 08:40:19;;;;;;;20.98;4.70;;;20.00;54.30;;;;;;4960827;28;86304;-71
2022/03/15 08:42:45;;;;;;;18.08;4.35;;;20.00;54.30;;;;;;4951931;28;86431;-71
2022/03/15 08:45:10;;;;;;;21.48;4.18;;;20.00;54.40;;;;;;4978196;28;86420;-71
2022/03/15 08:47:37;;;;;;;23.27;4.90;;;20.00;54.30;;;;;;4961303;28;85737;-70
2022/03/15 08:50:05;;;;;;;21.75;6.05;;;20.00;54.40;;;;;;4964602;28;87232;-71
2022/03/15 08:52:31;;;;;;;18.95;5.97;;;20.00;52.10;;;;;;4951210;28;88711;-71
2022/03/15 08:54:57;;;;;;;24.38;6.03;;;20.00;52.10;;;;;;4958300;28;86048;-71
2022/03/15 08:57:23;;;;;;;16.45;5.22;;;19.90;51.20;;;;;;4958383;28;85795;-72
2022/03/15 08:59:49;;;;;;;21.38;5.25;;;19.90;50.50;;;;;;4960354;28;87024;-72
2022/03/15 09:02:17;;;;;;;19.17;4.47;;;19.90;49.60;;;;;;4957206;28;89745;-72
2022/03/15 09:04:43;;;;;;;16.00;4.72;;;19.90;52.20;;;;;;4958505;28;85988;-71
2022/03/15 09:07:09;;;;;;;17.23;4.68;;;19.90;52.70;;;;;;4959367;28;86082;-71
2022/03/15 09:09:35;;;;;;;15.80;4.95;;;19.90;52.60;;;;;;4961029;28;86375;-71
2022/03/15 09:12:02;;;;;;;18.30;5.05;;;19.90;52.40;;;;;;4958908;28;88172;-71
2022/03/15 09:14:28;;;;;;;15.13;4.68;;;19.90;52.50;;;;;;4960521;28;85726;-71
2022/03/15 09:16:54;;;;;;;18.90;4.38;;;19.90;52.50;;;;;;4959544;28;85818;-71
2022/03/15 09:19:20;;;;;;;19.23;4.72;;;19.90;52.60;;;;;;4959874;28;86207;-71
2022/03/15 09:21:46;;;;;;;20.15;5.15;;;19.90;52.80;;;;;;4960013;28;87288;-71
2022/03/15 09:24:12;;;;;;;18.17;4.47;;;19.90;52.70;;;;;;4960119;28;85634;-70
2022/03/15 09:26:38;;;;;;;18.85;4.68;;;19.90;52.80;;;;;;4959721;28;85653;-71
2022/03/15 09:29:04;;;;;;;18.58;5.15;;;19.90;52.50;;;;;;4959961;28;86483;-72
2022/03/15 09:31:30;;;;;;;17.90;4.78;;;19.90;52.60;;;;;;4962720;28;86586;-72
2022/03/15 09:33:55;;;;;;;18.25;5.00;;;19.90;52.60;;;;;;4958949;28;85653;-72
2022/03/15 09:36:21;;;;;;;14.93;5.05;;;19.90;52.60;;;;;;4959919;28;85959;-72
2022/03/15 09:38:47;;;;;;;16.85;4.85;;;19.90;52.80;;;;;;4959844;28;86888;-72
2022/03/15 09:41:17;;;;;;;16.13;4.85;;;19.90;52.70;;;;;;4959164;28;86281;-72
2022/03/15 09:43:45;;;;;;;16.52;4.50;;;19.90;52.80;;;;;;4959037;28;85910;-72
2022/03/15 09:46:12;;;;;;;12.25;3.22;;;19.90;53.00;;;;;;4957370;28;85858;-71
2022/03/15 09:48:42;;;;;;;9.95;3.05;;;19.90;53.10;;;;;;4957785;28;89454;-72
2022/03/15 09:51:12;;;;;;;11.40;3.35;;;19.90;53.20;;;;;;4959582;28;86308;-72
2022/03/15 09:53:40;;;;;;;11.75;3.58;;;19.90;53.50;;;;;;4973978;28;86188;-72
2022/03/15 09:56:06;;;;;;;10.32;3.72;;;19.90;53.90;;;;;;4957821;28;85586;-71
2022/03/15 09:58:32;;;;;;;12.35;3.83;;;19.90;53.70;;;;;;4959179;28;86842;-71
2022/03/15 10:00:57;;;;;;;12.80;3.58;;;19.90;53.30;;;;;;4958993;28;86102;-71
2022/03/15 10:03:25;;;;;;;12.02;3.30;;;20.00;54.00;;;;;;4969125;28;85708;-71
2022/03/15 10:05:53;;;;;;;10.85;2.85;;;20.00;53.60;;;;;;4974722;28;85745;-71
2022/03/15 10:08:22;;;;;;;16.13;4.05;;;20.00;54.30;;;;;;4959231;28;86366;-68
2022/03/15 10:10:52;;;;;;;10.38;3.83;;;20.00;53.80;;;;;;4957520;28;89873;-68
2022/03/15 10:13:19;;;;;;;13.02;4.03;;;20.00;54.00;;;;;;4961875;28;86915;-69
2022/03/15 10:15:59;;;;;;;19.27;4.10;;;20.10;54.10;;;;;;4958253;28;86088;-69
2022/03/15 10:18:25;;;;;;;11.63;3.88;;;20.10;54.60;;;;;;4958784;28;86751;-69
2022/03/15 10:20:52;;;;;;;10.50;3.25;;;20.10;55.00;;;;;;4967442;28;89694;-69
2022/03/15 10:23:19;;;;;;;9.13;3.60;;;20.10;55.20;;;;;;4974024;28;86138;-69
2022/03/15 10:25:51;;;;;;;9.98;3.33;;;20.10;55.70;;;;;;4959538;28;85745;-69
2022/03/15 10:28:19;;;;;;;6.40;2.60;;;20.10;55.90;;;;;;4956918;28;90592;-69
2022/03/15 10:30:46;;;;;;;12.40;2.55;;;20.20;57.00;;;;;;4958247;28;86734;-69
2022/03/15 10:33:17;;;;;;;4.30;1.92;;;20.20;56.70;;;;;;4956221;28;85727;-69
2022/03/15 10:35:48;;;;;;;4.97;2.28;;;20.20;56.00;;;;;;4958310;28;86413;-69
2022/03/15 10:38:14;;;;;;;8.80;2.63;;;20.10;56.30;;;;;;4958781;28;85584;-69
2022/03/15 10:40:51;;;;;;;7.55;2.80;;;20.10;55.90;;;;;;4957338;28;89278;-69
2022/03/15 10:43:23;;;;;;;7.40;3.08;;;20.20;56.10;;;;;;4958057;28;85994;-69
2022/03/15 10:45:55;;;;;;;5.65;2.20;;;20.20;54.90;;;;;;4958006;28;85599;-69
2022/03/15 10:48:30;;;;;;;5.93;2.28;;;20.20;55.20;;;;;;4956884;28;90510;-69
2022/03/15 10:50:59;;;;;;;11.55;3.30;;;20.10;55.00;;;;;;4958312;28;86920;-69
2022/03/15 10:53:42;;;;;;;8.70;3.22;;;20.10;54.70;;;;;;4960457;28;86400;-69
2022/03/15 10:56:20;;;;;;;12.05;3.22;;;20.10;54.70;;;;;;4952417;28;86518;-69
2022/03/15 10:59:09;;;;;;;5.43;2.57;;;20.10;55.30;;;;;;4957925;28;86798;-69
2022/03/15 11:01:41;;;;;;;8.45;3.35;;;20.10;56.00;;;;;;4957280;28;87416;-69
2022/03/15 11:04:11;;;;;;;5.40;2.65;;;20.10;56.30;;;;;;4955692;28;86035;-69
2022/03/15 11:06:39;;;;;;;20.45;3.70;;;20.10;56.50;;;;;;4956767;28;86266;-69
2022/03/15 11:09:17;;;;;;;8.85;2.90;;;20.10;56.80;;;;;;4953628;28;86837;-69
2022/03/15 11:11:45;;;;;;;10.43;3.13;;;20.10;56.90;;;;;;4953105;28;89157;-69
2022/03/15 11:14:11;;;;;;;9.90;3.25;;;20.10;56.90;;;;;;4956257;28;85906;-69
2022/03/15 11:16:38;;;;;;;6.10;2.30;;;20.10;56.70;;;;;;4959194;28;85581;-68
2022/03/15 11:19:05;;;;;;;9.95;2.65;;;20.10;56.80;;;;;;4957085;28;86443;-69
2022/03/15 11:21:33;;;;;;;8.13;2.60;;;20.10;56.60;;;;;;4958117;28;86623;-68
2022/03/15 11:24:01;;;;;;;8.30;2.72;;;20.10;56.30;;;;;;4974346;28;87191;-68
2022/03/15 11:26:33;;;;;;;7.22;2.42;;;20.10;56.60;;;;;;4956280;28;85631;-69
2022/03/15 11:28:59;;;;;;;10.93;3.50;;;20.10;56.50;;;;;;4959693;28;89646;-68
2022/03/15 11:31:25;;;;;;;5.95;2.80;;;20.10;56.80;;;;;;4958910;28;89469;-68
2022/03/15 11:33:51;;;;;;;5.30;2.80;;;20.10;56.90;;;;;;4961738;28;85600;-69
2022/03/15 11:36:18;;;;;;;7.18;2.28;;;20.10;56.80;;;;;;4976168;28;86193;-71
2022/03/15 11:38:44;;;;;;;6.40;2.70;;;20.10;57.10;;;;;;4961553;28;86460;-70
2022/03/15 11:41:11;;;;;;;5.32;2.45;;;20.10;57.10;;;;;;4959913;28;88820;-72
2022/03/15 11:44:01;;;;;;;6.47;2.50;;;20.10;57.40;;;;;;4964124;28;85993;-71
2022/03/15 11:46:33;;;;;;;6.70;2.65;;;20.10;57.10;;;;;;4957859;28;85956;-72
2022/03/15 11:49:10;;;;;;;7.68;2.80;;;20.20;57.10;;;;;;4960928;28;86799;-71
2022/03/15 11:52:04;;;;;;;7.80;3.17;;;20.20;57.20;;;;;;4961415;28;86371;-71
2022/03/15 11:54:50;;;;;;;4.82;2.60;;;20.10;57.20;;;;;;4958084;28;85866;-72
2022/03/15 11:57:30;;;;;;;6.57;2.47;;;20.20;57.20;;;;;;4961003;28;85601;-72
2022/03/15 12:00:00;;;;;;;7.57;2.40;;;20.20;57.50;;;;;;4958957;28;86290;-71
2022/03/15 12:02:38;;;;;;;8.25;2.75;;;20.20;57.40;;;;;;4953660;28;89586;-72
2022/03/15 12:05:18;;;;;;;9.23;2.55;;;20.20;57.70;;;;;;4961326;28;85611;-71
2022/03/15 12:07:46;;;;;;;7.65;2.45;;;20.20;57.50;;;;;;4956808;28;85716;-71
2022/03/15 12:10:28;;;;;;;5.95;2.20;;;20.20;58.00;;;;;;4958969;28;86875;-71
2022/03/15 12:13:07;;;;;;;9.13;2.13;;;20.30;57.80;;;;;;4961137;28;85949;-71
2022/03/15 12:15:42;;;;;;;7.18;2.15;;;20.30;58.10;;;;;;4961311;28;85658;-70
2022/03/15 12:20:55;;;;;;;8.43;2.60;;;20.30;57.90;;;;;;4960119;28;86830;-71
2022/03/15 12:23:26;;;;;;;8.45;2.50;;;20.30;58.10;;;;;;4959677;28;88942;-71
2022/03/15 12:25:54;;;;;;;6.93;2.75;;;20.30;58.00;;;;;;4959735;28;85705;-71
2022/03/15 12:28:31;;;;;;;6.05;2.38;;;20.30;58.10;;;;;;4960819;28;86156;-70
2022/03/15 12:31:08;;;;;;;8.88;2.80;;;20.30;58.00;;;;;;4959430;28;86817;-70
2022/03/15 12:33:35;;;;;;;6.43;2.55;;;20.30;58.10;;;;;;4959474;28;85933;-71
2022/03/15 12:36:05;;;;;;;8.13;2.38;;;20.30;58.30;;;;;;4959573;28;85598;-70
2022/03/15 12:38:39;;;;;;;8.35;2.42;;;20.30;58.30;;;;;;4957371;28;86366;-71
2022/03/15 12:41:08;;;;;;;5.03;2.80;;;20.30;58.60;;;;;;4958878;28;86883;-70
2022/03/15 12:43:34;;;;;;;7.65;2.50;;;20.30;59.10;;;;;;4960866;28;86378;-72
2022/03/15 12:46:07;;;;;;;5.50;2.40;;;20.30;58.60;;;;;;4960688;28;86371;-71
2022/03/15 12:48:36;;;;;;;8.35;2.10;;;20.30;57.90;;;;;;4971701;28;85974;-70
2022/03/15 12:51:03;;;;;;;8.40;2.60;;;20.30;58.10;;;;;;4949237;28;89850;-71